Time;durP1;ratioP1;P1;durP2;ratioP2;P2;SDS_P1;SDS_P2;PMS_P1;PMS_P2;Temp;Humidity;BMP_temperature;BMP_pressure;BME280_temperature;BME280_humidity;BME280_pressure;Samples;Min_cycle;Max_cycle;Signal;HPM_P1;HPM_P2
2021/04/20 00:04:38;;;;;;;14.63;10.70;;;;;;;;;;10963395;22;20242;-77
2021/04/20 00:09:39;;;;;;;14.10;10.83;;;;;;;;;;10444387;28;20239;-77
2021/04/20 00:14:41;;;;;;;15.13;11.00;;;;;;;;;;10439862;28;20756;-76
2021/04/20 00:19:43;;;;;;;14.70;10.77;;;;;;;;;;10439344;28;20219;-77
2021/04/20 00:24:44;;;;;;;14.40;11.17;;;;;;;;;;10439651;28;20219;-77
2021/04/20 00:29:46;;;;;;;15.57;11.77;;;;;;;;;;10441415;28;20660;-77
2021/04/20 00:34:48;;;;;;;17.33;12.60;;;;;;;;;;10446329;28;20235;-77
2021/04/20 00:39:49;;;;;;;15.00;11.30;;;;;;;;;;10443662;28;20444;-77
2021/04/20 00:44:52;;;;;;;15.77;11.83;;;;;;;;;;10440656;28;20279;-74
2021/04/20 00:49:54;;;;;;;16.97;11.90;;;;;;;;;;10439841;28;20235;-76
2021/04/20 00:54:55;;;;;;;17.37;12.40;;;;;;;;;;10442417;28;20207;-77
2021/04/20 00:59:58;;;;;;;22.13;13.33;;;;;;;;;;10435971;28;20210;-75
2021/04/20 01:04:59;;;;;;;18.20;13.87;;;;;;;;;;10444570;28;20238;-76
2021/04/20 01:10:02;;;;;;;19.17;14.50;;;;;;;;;;10450810;28;20548;-75
2021/04/20 01:15:05;;;;;;;20.67;14.30;;;;;;;;;;10441246;28;20212;-75
2021/04/20 01:20:08;;;;;;;20.47;14.80;;;;;;;;;;10449377;28;20207;-76
2021/04/20 01:25:12;;;;;;;22.83;15.30;;;;;;;;;;10447794;28;20207;-76
2021/04/20 01:30:15;;;;;;;23.70;15.87;;;;;;;;;;10445057;28;20239;-76
2021/04/20 01:35:17;;;;;;;22.07;15.37;;;;;;;;;;10445392;28;20587;-76
2021/04/20 01:40:20;;;;;;;22.07;15.23;;;;;;;;;;10448828;28;20230;-76
2021/04/20 01:45:22;;;;;;;24.57;16.27;;;;;;;;;;10444190;28;20219;-76
2021/04/20 01:50:24;;;;;;;22.57;15.57;;;;;;;;;;10450557;28;20231;-76
2021/04/20 01:55:27;;;;;;;22.83;15.97;;;;;;;;;;10444033;28;20218;-76
2021/04/20 02:00:30;;;;;;;22.03;15.93;;;;;;;;;;10453881;28;20215;-76
2021/04/20 02:05:32;;;;;;;22.70;15.30;;;;;;;;;;10457920;28;20234;-76
2021/04/20 02:10:35;;;;;;;22.70;16.40;;;;;;;;;;10457511;28;20292;-77
2021/04/20 02:15:37;;;;;;;24.30;16.37;;;;;;;;;;10450558;28;20210;-75
2021/04/20 02:20:40;;;;;;;23.10;16.70;;;;;;;;;;10460086;28;20297;-75
2021/04/20 02:25:43;;;;;;;24.73;17.40;;;;;;;;;;10455668;28;20226;-76
2021/04/20 02:30:45;;;;;;;24.67;16.83;;;;;;;;;;10449508;28;20646;-76
2021/04/20 02:35:48;;;;;;;26.33;16.80;;;;;;;;;;10451215;28;20211;-76
2021/04/20 02:40:53;;;;;;;26.00;17.40;;;;;;;;;;10452955;28;20962;-76
2021/04/20 02:45:57;;;;;;;27.53;17.67;;;;;;;;;;10448387;28;20257;-76
2021/04/20 02:51:00;;;;;;;26.70;17.90;;;;;;;;;;10455256;28;20794;-76
2021/04/20 02:56:03;;;;;;;24.27;17.03;;;;;;;;;;10449513;28;20230;-77
2021/04/20 03:01:06;;;;;;;23.87;16.83;;;;;;;;;;10453674;28;20218;-76
2021/04/20 03:06:08;;;;;;;25.77;18.37;;;;;;;;;;10449191;28;20227;-77
2021/04/20 03:11:15;;;;;;;26.53;17.73;;;;;;;;;;10453519;28;20233;-75
2021/04/20 03:16:16;;;;;;;25.30;17.70;;;;;;;;;;10446495;28;20218;-77
2021/04/20 03:21:20;;;;;;;26.80;18.00;;;;;;;;;;10454014;28;20229;-75
2021/04/20 03:26:39;;;;;;;26.10;17.77;;;;;;;;;;10448651;28;20208;-75
2021/04/20 03:31:41;;;;;;;25.50;17.93;;;;;;;;;;10455104;28;20231;-76
2021/04/20 03:36:46;;;;;;;25.23;18.17;;;;;;;;;;10454340;28;20210;-76
2021/04/20 03:41:51;;;;;;;28.23;18.27;;;;;;;;;;10451328;28;20749;-76
2021/04/20 03:46:54;;;;;;;27.47;18.27;;;;;;;;;;10454190;28;20211;-75
2021/04/20 03:51:58;;;;;;;26.50;18.10;;;;;;;;;;10446428;28;20242;-75
2021/04/20 03:57:02;;;;;;;28.63;18.23;;;;;;;;;;10456634;28;20713;-76
2021/04/20 04:02:04;;;;;;;27.53;18.13;;;;;;;;;;10445585;28;20238;-76
2021/04/20 04:07:06;;;;;;;26.23;18.17;;;;;;;;;;10447633;28;20330;-76
2021/04/20 04:12:10;;;;;;;28.83;18.80;;;;;;;;;;10447749;28;20245;-76
2021/04/20 04:17:13;;;;;;;27.27;17.90;;;;;;;;;;10441384;28;20217;-75
2021/04/20 04:22:28;;;;;;;26.00;17.37;;;;;;;;;;10450253;28;20214;-76
2021/04/20 04:27:33;;;;;;;27.60;19.20;;;;;;;;;;10445541;28;20218;-75
2021/04/20 04:32:36;;;;;;;27.63;19.00;;;;;;;;;;10446525;28;20618;-76
2021/04/20 04:37:40;;;;;;;26.87;18.60;;;;;;;;;;10446886;28;20211;-75
2021/04/20 04:42:42;;;;;;;27.57;18.03;;;;;;;;;;10444025;28;20228;-78
2021/04/20 04:47:45;;;;;;;31.37;19.63;;;;;;;;;;10441478;28;20226;-75
2021/04/20 04:52:47;;;;;;;30.90;19.60;;;;;;;;;;10447753;28;20242;-76
2021/04/20 04:57:51;;;;;;;28.23;17.93;;;;;;;;;;10441467;28;20491;-81
2021/04/20 05:02:56;;;;;;;28.87;19.30;;;;;;;;;;10445339;28;20227;-74
2021/04/20 05:07:58;;;;;;;28.77;18.63;;;;;;;;;;10443156;28;20211;-78
2021/04/20 05:13:01;;;;;;;30.40;19.13;;;;;;;;;;10446482;28;20283;-81
2021/04/20 05:18:08;;;;;;;30.07;20.13;;;;;;;;;;10449520;28;20281;-77
2021/04/20 05:23:14;;;;;;;31.13;19.23;;;;;;;;;;10448500;28;20226;-78
2021/04/20 05:28:17;;;;;;;30.67;19.97;;;;;;;;;;10445502;28;20215;-77
2021/04/20 05:33:19;;;;;;;30.60;20.70;;;;;;;;;;10435537;28;20734;-77
2021/04/20 05:38:21;;;;;;;31.97;19.50;;;;;;;;;;10442824;28;20222;-76
2021/04/20 05:43:23;;;;;;;35.70;21.60;;;;;;;;;;10440070;28;20207;-77
2021/04/20 05:48:25;;;;;;;34.00;21.87;;;;;;;;;;10448272;28;20215;-78
2021/04/20 05:53:27;;;;;;;37.73;23.60;;;;;;;;;;10445173;28;20707;-78
2021/04/20 05:58:30;;;;;;;34.30;22.83;;;;;;;;;;10441497;28;20221;-78
2021/04/20 06:03:33;;;;;;;37.93;23.83;;;;;;;;;;10440767;28;20234;-77
2021/04/20 06:08:36;;;;;;;36.20;23.00;;;;;;;;;;10445582;28;20215;-79
2021/04/20 06:13:40;;;;;;;34.73;22.17;;;;;;;;;;10439027;28;20241;-78
2021/04/20 06:18:42;;;;;;;40.17;23.07;;;;;;;;;;10439670;28;20215;-77
2021/04/20 06:23:45;;;;;;;39.37;23.93;;;;;;;;;;10438027;28;20257;-76
2021/04/20 06:28:48;;;;;;;39.60;24.63;;;;;;;;;;10442461;28;20223;-78
2021/04/20 06:33:50;;;;;;;37.77;23.90;;;;;;;;;;10442449;28;20235;-76
2021/04/20 06:38:52;;;;;;;37.40;23.93;;;;;;;;;;10451052;28;20612;-76
2021/04/20 06:43:58;;;;;;;39.70;25.23;;;;;;;;;;10449589;28;20215;-79
2021/04/20 06:49:02;;;;;;;38.47;24.83;;;;;;;;;;10447700;28;20259;-78
2021/04/20 06:54:07;;;;;;;38.73;24.93;;;;;;;;;;10447533;28;20829;-77
2021/04/20 06:59:13;;;;;;;41.00;24.73;;;;;;;;;;10438353;28;20221;-79
2021/04/20 07:04:17;;;;;;;40.73;25.27;;;;;;;;;;10450219;28;20669;-77
2021/04/20 07:09:22;;;;;;;37.37;24.47;;;;;;;;;;10447297;28;20215;-78
2021/04/20 07:14:35;;;;;;;38.20;24.73;;;;;;;;;;10446823;28;20229;-78
2021/04/20 07:19:48;;;;;;;41.37;25.63;;;;;;;;;;10448115;28;20222;-79
2021/04/20 07:25:07;;;;;;;43.27;25.80;;;;;;;;;;10450253;28;20211;-78
2021/04/20 07:30:15;;;;;;;47.23;27.30;;;;;;;;;;10449514;28;20557;-77
2021/04/20 07:35:20;;;;;;;40.03;25.43;;;;;;;;;;10455269;28;20203;-77
2021/04/20 07:40:27;;;;;;;40.37;25.87;;;;;;;;;;10452119;28;20219;-78
2021/04/20 07:45:33;;;;;;;41.37;25.43;;;;;;;;;;10448683;28;20211;-78
2021/04/20 07:50:38;;;;;;;42.20;26.30;;;;;;;;;;10447033;28;20227;-77
2021/04/20 07:55:46;;;;;;;43.97;26.63;;;;;;;;;;10444446;28;20993;-77
2021/04/20 08:00:53;;;;;;;38.47;24.60;;;;;;;;;;10447768;28;20660;-78
2021/04/20 08:05:57;;;;;;;38.00;23.80;;;;;;;;;;10449997;28;20216;-77
2021/04/20 08:11:00;;;;;;;38.27;23.57;;;;;;;;;;10449747;28;20400;-78
2021/04/20 08:16:06;;;;;;;39.93;24.57;;;;;;;;;;10448877;28;20226;-77
2021/04/20 08:21:08;;;;;;;38.53;24.13;;;;;;;;;;10448369;28;20333;-77
2021/04/20 08:26:13;;;;;;;36.53;23.07;;;;;;;;;;10447354;28;20203;-78
2021/04/20 08:31:20;;;;;;;37.17;23.47;;;;;;;;;;10424318;28;20837;-77
2021/04/20 08:36:31;;;;;;;36.93;23.43;;;;;;;;;;10446035;28;20258;-77
2021/04/20 08:41:40;;;;;;;34.70;22.67;;;;;;;;;;10449610;28;20210;-77
2021/04/20 08:46:48;;;;;;;34.53;22.67;;;;;;;;;;10450257;28;20214;-76
2021/04/20 08:51:54;;;;;;;35.27;21.73;;;;;;;;;;10428599;28;20498;-77
2021/04/20 08:57:01;;;;;;;28.60;17.47;;;;;;;;;;10445836;28;20273;-77
2021/04/20 09:02:10;;;;;;;30.47;18.43;;;;;;;;;;10425946;28;20591;-77
2021/04/20 09:07:15;;;;;;;27.43;16.97;;;;;;;;;;10429545;28;20308;-77
2021/04/20 09:12:18;;;;;;;28.33;18.23;;;;;;;;;;10449700;28;20254;-78
2021/04/20 09:17:27;;;;;;;27.77;17.83;;;;;;;;;;10442552;28;20218;-77
2021/04/20 09:22:37;;;;;;;24.77;16.47;;;;;;;;;;10436153;28;20893;-77
2021/04/20 09:27:43;;;;;;;20.87;13.80;;;;;;;;;;10443567;28;20676;-77
2021/04/20 09:32:49;;;;;;;22.40;14.13;;;;;;;;;;10448647;28;20847;-76
2021/04/20 09:37:52;;;;;;;15.30;10.67;;;;;;;;;;10444742;28;20336;-77
2021/04/20 09:42:56;;;;;;;17.27;10.60;;;;;;;;;;10441251;28;20210;-77
2021/04/20 09:48:06;;;;;;;15.90;10.33;;;;;;;;;;10445043;28;20207;-78
2021/04/20 09:53:13;;;;;;;15.60;10.23;;;;;;;;;;10445802;28;20241;-78
2021/04/20 09:58:16;;;;;;;16.80;10.97;;;;;;;;;;10438349;28;20696;-76
2021/04/20 10:03:33;;;;;;;12.60;8.63;;;;;;;;;;10448854;28;20234;-77
2021/04/20 10:08:40;;;;;;;11.00;8.00;;;;;;;;;;10453122;28;20217;-77
2021/04/20 10:13:48;;;;;;;14.60;9.17;;;;;;;;;;10448641;28;20244;-78
2021/04/20 10:18:56;;;;;;;15.97;10.53;;;;;;;;;;10448492;28;20219;-76
2021/04/20 10:24:04;;;;;;;12.70;8.67;;;;;;;;;;10452305;28;20215;-78
2021/04/20 10:29:10;;;;;;;13.43;9.10;;;;;;;;;;10459367;28;20219;-77
2021/04/20 10:34:16;;;;;;;13.47;8.53;;;;;;;;;;10439376;28;20250;-76
2021/04/20 10:39:18;;;;;;;12.87;8.57;;;;;;;;;;10452197;28;20582;-77
2021/04/20 10:44:21;;;;;;;13.43;8.70;;;;;;;;;;10530970;22;20235;-78
2021/04/20 10:49:24;;;;;;;12.40;8.33;;;;;;;;;;10460208;28;20223;-79
2021/04/20 10:54:28;;;;;;;12.70;9.03;;;;;;;;;;10459194;28;20702;-78
2021/04/20 10:59:32;;;;;;;12.07;8.57;;;;;;;;;;10456026;28;20208;-78
2021/04/20 11:04:37;;;;;;;12.97;8.00;;;;;;;;;;10428033;28;20268;-78
2021/04/20 11:09:39;;;;;;;12.37;8.87;;;;;;;;;;10412325;28;20250;-78
2021/04/20 11:14:41;;;;;;;13.87;9.50;;;;;;;;;;10409433;28;20638;-78
2021/04/20 11:19:45;;;;;;;15.83;10.50;;;;;;;;;;10418455;28;20212;-78
2021/04/20 11:24:54;;;;;;;14.97;9.67;;;;;;;;;;10418665;28;20285;-79
2021/04/20 11:30:00;;;;;;;16.60;9.97;;;;;;;;;;10419084;28;20211;-78
2021/04/20 11:35:06;;;;;;;17.30;9.80;;;;;;;;;;10412844;28;20216;-77
2021/04/20 11:40:10;;;;;;;15.40;10.70;;;;;;;;;;10415104;28;20219;-77
2021/04/20 11:45:13;;;;;;;13.33;9.43;;;;;;;;;;10416375;28;20222;-80
2021/04/20 11:50:17;;;;;;;14.70;9.67;;;;;;;;;;10414741;28;20372;-78
2021/04/20 11:55:19;;;;;;;13.23;8.97;;;;;;;;;;10419099;28;20243;-78
2021/04/20 12:00:27;;;;;;;14.77;9.57;;;;;;;;;;10412703;28;20908;-79
2021/04/20 12:05:29;;;;;;;17.43;10.90;;;;;;;;;;10415857;28;20236;-78
2021/04/20 12:10:32;;;;;;;12.93;9.20;;;;;;;;;;10413866;28;20349;-76
2021/04/20 12:15:34;;;;;;;13.87;9.87;;;;;;;;;;10417352;28;20216;-76
2021/04/20 12:20:37;;;;;;;15.43;9.13;;;;;;;;;;10414662;28;20345;-78
2021/04/20 12:25:39;;;;;;;16.63;10.33;;;;;;;;;;10409973;28;20665;-78
2021/04/20 12:30:45;;;;;;;15.57;10.63;;;;;;;;;;10413683;28;20242;-78
2021/04/20 12:35:48;;;;;;;16.23;11.27;;;;;;;;;;10416177;28;20208;-78
2021/04/20 12:40:51;;;;;;;17.03;11.80;;;;;;;;;;10411192;28;20715;-78
2021/04/20 12:46:03;;;;;;;19.53;12.97;;;;;;;;;;10407309;28;20216;-77
2021/04/20 12:51:07;;;;;;;17.90;11.50;;;;;;;;;;10412348;28;20242;-77
2021/04/20 12:56:09;;;;;;;16.67;11.37;;;;;;;;;;10419487;28;20207;-78
2021/04/20 13:01:12;;;;;;;17.10;11.03;;;;;;;;;;10413315;28;20216;-78
2021/04/20 13:06:15;;;;;;;18.43;12.13;;;;;;;;;;10414901;28;20226;-77
2021/04/20 13:11:25;;;;;;;21.37;14.37;;;;;;;;;;10406868;28;20633;-77
2021/04/20 13:16:29;;;;;;;22.37;13.30;;;;;;;;;;10411119;28;20223;-77
2021/04/20 13:21:33;;;;;;;21.70;13.87;;;;;;;;;;10410731;28;20215;-78
2021/04/20 13:26:36;;;;;;;18.50;12.93;;;;;;;;;;10414529;28;20210;-77
2021/04/20 13:31:39;;;;;;;17.97;12.23;;;;;;;;;;10412073;28;20703;-76
2021/04/20 13:36:42;;;;;;;22.07;14.43;;;;;;;;;;10407979;28;20231;-77
2021/04/20 13:41:46;;;;;;;18.53;12.80;;;;;;;;;;10401751;28;20700;-76
2021/04/20 13:46:50;;;;;;;19.17;12.60;;;;;;;;;;10404234;28;21424;-77
2021/04/20 13:51:54;;;;;;;20.73;12.67;;;;;;;;;;10415206;28;20268;-77
2021/04/20 13:56:57;;;;;;;18.37;12.07;;;;;;;;;;10404963;28;20212;-77
2021/04/20 14:02:00;;;;;;;18.33;11.80;;;;;;;;;;10404253;28;20238;-77
2021/04/20 14:07:05;;;;;;;17.47;12.37;;;;;;;;;;10404823;28;20225;-79
2021/04/20 14:12:09;;;;;;;19.13;12.53;;;;;;;;;;10407234;28;20236;-75
2021/04/20 14:17:12;;;;;;;18.90;12.77;;;;;;;;;;10404287;28;20219;-76
2021/04/20 14:22:15;;;;;;;19.33;12.90;;;;;;;;;;10408590;28;20640;-78
2021/04/20 14:27:18;;;;;;;17.77;12.20;;;;;;;;;;10405628;28;20215;-78
2021/04/20 14:32:19;;;;;;;20.13;13.03;;;;;;;;;;10400782;28;20243;-76
2021/04/20 14:37:22;;;;;;;23.67;14.20;;;;;;;;;;10413248;28;20245;-77
2021/04/20 14:42:25;;;;;;;18.77;12.53;;;;;;;;;;10409459;28;20214;-77
2021/04/20 14:47:41;;;;;;;16.13;11.37;;;;;;;;;;10410067;28;20635;-78
2021/04/20 14:52:44;;;;;;;17.90;12.87;;;;;;;;;;10411347;28;20252;-77
2021/04/20 14:57:47;;;;;;;18.97;12.50;;;;;;;;;;10413579;28;20216;-77
2021/04/20 15:02:49;;;;;;;17.97;12.40;;;;;;;;;;10411384;28;20723;-79
2021/04/20 15:07:55;;;;;;;19.77;12.80;;;;;;;;;;10407910;28;20838;-75
2021/04/20 15:12:59;;;;;;;19.27;12.47;;;;;;;;;;10408526;28;20701;-75
2021/04/20 15:18:07;;;;;;;17.27;12.07;;;;;;;;;;10415723;28;20204;-77
2021/04/20 15:23:16;;;;;;;19.30;12.53;;;;;;;;;;10409370;28;20238;-77
2021/04/20 15:28:19;;;;;;;17.07;11.90;;;;;;;;;;10412836;28;20574;-76
2021/04/20 15:33:22;;;;;;;22.80;12.80;;;;;;;;;;10415149;28;20280;-77
2021/04/20 15:38:26;;;;;;;15.30;10.57;;;;;;;;;;10408951;28;20216;-77
2021/04/20 15:43:29;;;;;;;18.60;12.87;;;;;;;;;;10403986;28;20314;-77
2021/04/20 15:48:32;;;;;;;17.50;11.40;;;;;;;;;;10407588;28;20242;-76
2021/04/20 15:53:37;;;;;;;20.60;12.20;;;;;;;;;;10413879;28;20235;-76
2021/04/20 15:58:42;;;;;;;17.87;11.30;;;;;;;;;;10406422;28;20582;-78
2021/04/20 16:03:45;;;;;;;17.70;11.80;;;;;;;;;;10401351;28;20376;-76
2021/04/20 16:08:48;;;;;;;17.77;11.37;;;;;;;;;;10407701;28;20215;-78
2021/04/20 16:13:51;;;;;;;20.97;11.93;;;;;;;;;;10406922;28;20232;-77
2021/04/20 16:18:56;;;;;;;20.57;12.20;;;;;;;;;;10404158;28;20223;-77
2021/04/20 16:23:59;;;;;;;18.40;11.50;;;;;;;;;;10408306;28;20216;-77
2021/04/20 16:29:02;;;;;;;18.07;11.53;;;;;;;;;;10411486;28;20654;-85
2021/04/20 16:34:08;;;;;;;18.57;11.53;;;;;;;;;;10407852;28;20236;-79
2021/04/20 16:39:18;;;;;;;17.77;10.83;;;;;;;;;;10413424;28;20292;-78
2021/04/20 16:44:32;;;;;;;19.23;12.03;;;;;;;;;;10402799;28;20254;-77
2021/04/20 16:49:41;;;;;;;20.77;13.30;;;;;;;;;;10415114;28;20665;-77
2021/04/20 16:54:47;;;;;;;17.57;11.70;;;;;;;;;;10406142;28;20235;-78
2021/04/20 16:59:57;;;;;;;18.30;12.27;;;;;;;;;;10412125;28;20237;-78
2021/04/20 17:05:01;;;;;;;19.23;12.03;;;;;;;;;;10405731;28;20238;-77
2021/04/20 17:10:08;;;;;;;22.60;12.90;;;;;;;;;;10413102;28;20207;-76
2021/04/20 17:15:15;;;;;;;21.20;13.07;;;;;;;;;;10402143;28;20742;-77
2021/04/20 17:20:41;;;;;;;20.87;12.77;;;;;;;;;;10412468;28;20222;-79
2021/04/20 17:25:44;;;;;;;20.93;13.13;;;;;;;;;;10314438;28;20687;-79
2021/04/20 17:31:07;;;;;;;20.53;12.80;;;;;;;;;;10407528;28;20220;-78
2021/04/20 17:36:11;;;;;;;18.00;12.50;;;;;;;;;;10402557;28;20528;-79
2021/04/20 17:41:16;;;;;;;20.03;12.73;;;;;;;;;;10411272;28;20219;-77
2021/04/20 17:46:22;;;;;;;21.10;12.73;;;;;;;;;;10402365;28;20220;-78
2021/04/20 17:51:44;;;;;;;22.30;11.90;;;;;;;;;;10397864;28;20720;-77
2021/04/20 17:56:54;;;;;;;16.80;11.30;;;;;;;;;;10408002;28;20214;-79
2021/04/20 18:01:59;;;;;;;15.60;11.17;;;;;;;;;;10409730;28;20696;-80
2021/04/20 18:07:06;;;;;;;18.80;12.63;;;;;;;;;;10403002;28;20688;-79
2021/04/20 18:12:24;;;;;;;18.37;11.70;;;;;;;;;;10404074;28;20555;-80
2021/04/20 18:17:32;;;;;;;18.77;12.30;;;;;;;;;;10408745;28;20211;-82
2021/04/20 18:22:52;;;;;;;18.67;11.10;;;;;;;;;;10409175;28;20781;-78
2021/04/20 18:28:02;;;;;;;19.80;11.13;;;;;;;;;;10402231;28;20239;-77
2021/04/20 18:33:12;;;;;;;21.60;11.73;;;;;;;;;;10403815;28;20242;-77
2021/04/20 18:38:17;;;;;;;18.47;12.17;;;;;;;;;;10407325;28;20212;-77
2021/04/20 18:43:42;;;;;;;17.97;12.90;;;;;;;;;;10412760;28;20583;-77
2021/04/20 18:48:49;;;;;;;18.90;12.50;;;;;;;;;;10414539;28;20258;-76
2021/04/20 18:53:58;;;;;;;18.30;11.90;;;;;;;;;;10417294;28;20601;-77
2021/04/20 18:59:05;;;;;;;19.00;12.60;;;;;;;;;;10413078;28;20549;-77
2021/04/20 19:04:14;;;;;;;20.83;12.20;;;;;;;;;;10415085;28;20235;-78
2021/04/20 19:09:17;;;;;;;18.47;11.90;;;;;;;;;;10414367;28;20238;-78
2021/04/20 19:14:32;;;;;;;18.63;12.17;;;;;;;;;;10419706;28;20235;-77
2021/04/20 19:19:37;;;;;;;18.13;12.00;;;;;;;;;;10413513;28;20222;-78
2021/04/20 19:24:40;;;;;;;23.70;13.17;;;;;;;;;;10416043;28;20406;-79
2021/04/20 19:29:47;;;;;;;20.43;13.33;;;;;;;;;;10413578;28;20212;-79
2021/04/20 19:35:03;;;;;;;24.47;12.97;;;;;;;;;;10416216;28;20882;-77
2021/04/20 19:40:26;;;;;;;20.40;13.27;;;;;;;;;;10393720;28;20274;-80
2021/04/20 19:45:41;;;;;;;22.00;13.80;;;;;;;;;;10406169;28;20211;-77
2021/04/20 19:50:44;;;;;;;24.47;12.40;;;;;;;;;;10412131;28;20240;-77
2021/04/20 19:55:47;;;;;;;21.87;12.90;;;;;;;;;;10407738;28;20734;-79
2021/04/20 20:00:50;;;;;;;21.10;12.63;;;;;;;;;;10410168;28;20310;-79
2021/04/20 20:05:55;;;;;;;21.03;11.83;;;;;;;;;;10408049;28;20788;-79
2021/04/20 20:11:05;;;;;;;23.47;13.30;;;;;;;;;;10410318;28;20215;-77
2021/04/20 20:16:16;;;;;;;23.23;13.53;;;;;;;;;;10408517;28;20223;-78
2021/04/20 20:21:18;;;;;;;21.30;12.47;;;;;;;;;;10411743;28;20683;-79
2021/04/20 20:26:20;;;;;;;19.83;12.77;;;;;;;;;;10408931;28;20208;-79
2021/04/20 20:31:24;;;;;;;21.17;11.60;;;;;;;;;;10409262;28;20242;-78
2021/04/20 20:36:27;;;;;;;20.53;11.67;;;;;;;;;;10410282;28;20706;-78
2021/04/20 20:41:32;;;;;;;18.03;10.80;;;;;;;;;;10406607;28;20242;-80
2021/04/20 20:46:37;;;;;;;20.20;10.93;;;;;;;;;;10393268;28;20211;-79
2021/04/20 20:51:40;;;;;;;21.60;10.80;;;;;;;;;;10416707;28;20331;-81
2021/04/20 20:56:43;;;;;;;20.37;10.53;;;;;;;;;;10411869;28;20677;-78
2021/04/20 21:01:52;;;;;;;19.03;10.40;;;;;;;;;;10415343;28;20270;-78
2021/04/20 21:06:55;;;;;;;19.70;10.70;;;;;;;;;;10409367;28;20211;-79
2021/04/20 21:11:59;;;;;;;17.40;10.47;;;;;;;;;;10416254;28;20470;-79
2021/04/20 21:17:04;;;;;;;16.63;9.90;;;;;;;;;;10391601;28;20673;-78
2021/04/20 21:22:06;;;;;;;19.53;10.17;;;;;;;;;;10411501;28;20233;-79
2021/04/20 21:27:10;;;;;;;22.07;10.47;;;;;;;;;;10410535;28;20208;-79
2021/04/20 21:32:17;;;;;;;19.67;10.80;;;;;;;;;;10410727;28;20529;-79
2021/04/20 21:37:21;;;;;;;18.63;10.53;;;;;;;;;;10411211;28;20890;-78
2021/04/20 21:42:33;;;;;;;20.70;11.20;;;;;;;;;;10413719;28;20322;-79
2021/04/20 21:47:36;;;;;;;18.57;9.83;;;;;;;;;;10407009;28;20215;-79
2021/04/20 21:52:41;;;;;;;20.27;9.77;;;;;;;;;;10412220;28;20932;-78
2021/04/20 21:57:46;;;;;;;17.80;10.27;;;;;;;;;;10411598;28;20215;-78
2021/04/20 22:02:53;;;;;;;19.00;10.07;;;;;;;;;;10405304;28;20242;-78
2021/04/20 22:07:57;;;;;;;19.33;10.10;;;;;;;;;;10410716;28;20251;-78
2021/04/20 22:12:59;;;;;;;19.50;10.40;;;;;;;;;;10409449;28;20231;-78
2021/04/20 22:18:07;;;;;;;19.40;10.17;;;;;;;;;;10416648;28;20207;-79
2021/04/20 22:23:17;;;;;;;20.50;11.17;;;;;;;;;;10420065;28;20238;-78
2021/04/20 22:28:20;;;;;;;15.53;9.93;;;;;;;;;;10418725;28;20578;-78
2021/04/20 22:33:24;;;;;;;18.93;10.40;;;;;;;;;;10416948;28;20585;-78
2021/04/20 22:38:27;;;;;;;23.33;10.87;;;;;;;;;;10420285;28;20223;-78
2021/04/20 22:43:29;;;;;;;19.10;10.57;;;;;;;;;;10416254;28;20215;-78
2021/04/20 22:48:32;;;;;;;19.33;10.70;;;;;;;;;;10416407;28;20208;-77
2021/04/20 22:53:35;;;;;;;20.20;10.90;;;;;;;;;;10417035;28;20242;-77
2021/04/20 22:58:39;;;;;;;19.63;11.00;;;;;;;;;;10416827;28;20222;-77
2021/04/20 23:03:42;;;;;;;21.67;12.23;;;;;;;;;;10416757;28;20627;-78
2021/04/20 23:08:47;;;;;;;19.60;12.00;;;;;;;;;;10417388;28;20299;-79
2021/04/20 23:13:51;;;;;;;22.10;12.07;;;;;;;;;;10414108;28;20711;-77
2021/04/20 23:18:54;;;;;;;19.73;12.40;;;;;;;;;;10415063;28;20222;-79
2021/04/20 23:23:59;;;;;;;25.27;13.03;;;;;;;;;;10415754;28;20215;-78
2021/04/20 23:29:05;;;;;;;21.77;12.83;;;;;;;;;;10421690;28;20901;-78
2021/04/20 23:34:09;;;;;;;24.50;13.93;;;;;;;;;;10415985;28;20323;-79
2021/04/20 23:39:12;;;;;;;24.40;13.67;;;;;;;;;;10418299;28;20212;-79
2021/04/20 23:44:15;;;;;;;24.47;13.53;;;;;;;;;;10413971;28;20678;-79
2021/04/20 23:49:18;;;;;;;22.17;13.50;;;;;;;;;;10418603;28;20403;-78
2021/04/20 23:54:20;;;;;;;24.10;13.80;;;;;;;;;;10417033;28;20294;-79
2021/04/20 23:59:24;;;;;;;24.30;14.03;;;;;;;;;;10417952;28;20219;-80
